Etusivu
METAR-TAF:

METAR-TAF

Lentoasemat :

Marshfield Municipal Airport

Marshfield, Wisconsin, Yhdysvallat

Leveyspiiri: 44-38-17N, Pituuspiiri: 090-11-15W, korkeus merenpinnasta: 389 m

Tämänhetkinen sää

Tämä raportti tehtiin 1 tunti ja 15 minuuttia sitten, kello 15.54 UTC
Tuuli 16 kn pohjoisen/luoteesta puuskistuen 22 kn:hen
Lämpötila 8°C
Kosteus 71%
Ilmanpaine 1016 hPa
Näkyvyys: 16.1 km
Hajanaisia pilviä 2300 ft:n korkeudessa
Hajanaisia pilviä 2800 ft:n korkeudessa

METAR: KMFI 161554Z AUTO 33016G22KT 10SM SCT023 SCT028 08/03 A2999 RMK AO2 PK WND 33027/1535 SLP166 T00830028

Aika: 12:09 (17:09 UTC)


TAF: puuttuu

Säähavainnot ja -ennusteet yli 4000 lentoasemalta (METAR- ja TAF-raportit).

Käytössä olevat sääasemat on merkitty karttaan keltaisilla ja punaisilla pisteillä.

Aseta hiiri pisteen päälle nähdäksesi sääaseman nimen.

Klikkaa sitten nähdäksesi säähavainnot ja -ennusteet.

Kartan vaihtaminen: klikkaa mustalla rastilla varustettuja vihreitä pisteitä, niin voit zoomata sisään; viivalla varustettua vihreää pistettä, niin voit zoomata ulos tai vihreitä nuolia, niin pääset viereisille kartoille.


METAR-TAF: